sensor_id;sensor_type;location;lat;lon;timestamp;pressure;altitude;pressure_sealevel;temperature;humidity
54465;BME280;40374;49.480;20.016;2022-12-18T00:00:04;96062.06;;;-4.81;100.00
54465;BME280;40374;49.480;20.016;2022-12-18T00:02:59;96066.09;;;-4.95;100.00
54465;BME280;40374;49.480;20.016;2022-12-18T00:05:27;96078.44;;;-4.87;100.00
54465;BME280;40374;49.480;20.016;2022-12-18T00:07:54;96088.22;;;-4.98;100.00
54465;BME280;40374;49.480;20.016;2022-12-18T00:10:22;96072.03;;;-5.19;100.00
54465;BME280;40374;49.480;20.016;2022-12-18T00:12:49;96084.31;;;-5.20;100.00
54465;BME280;40374;49.480;20.016;2022-12-18T00:15:17;96078.88;;;-5.26;100.00
54465;BME280;40374;49.480;20.016;2022-12-18T00:17:44;96098.09;;;-5.18;100.00
54465;BME280;40374;49.480;20.016;2022-12-18T00:20:12;96102.31;;;-5.25;100.00
54465;BME280;40374;49.480;20.016;2022-12-18T00:22:41;96104.41;;;-5.28;100.00
54465;BME280;40374;49.480;20.016;2022-12-18T00:25:09;96101.59;;;-5.35;100.00
54465;BME280;40374;49.480;20.016;2022-12-18T00:27:36;96109.34;;;-5.25;100.00
54465;BME280;40374;49.480;20.016;2022-12-18T00:30:04;96123.50;;;-5.18;100.00
54465;BME280;40374;49.480;20.016;2022-12-18T00:32:32;96107.44;;;-5.15;100.00
54465;BME280;40374;49.480;20.016;2022-12-18T00:35:01;96124.69;;;-5.13;100.00
54465;BME280;40374;49.480;20.016;2022-12-18T00:37:30;96133.69;;;-5.15;100.00
54465;BME280;40374;49.480;20.016;2022-12-18T00:39:58;96141.03;;;-5.19;100.00
54465;BME280;40374;49.480;20.016;2022-12-18T00:42:25;96142.22;;;-5.13;100.00
54465;BME280;40374;49.480;20.016;2022-12-18T00:45:11;96155.47;;;-5.15;100.00
54465;BME280;40374;49.480;20.016;2022-12-18T00:47:39;96154.06;;;-5.09;100.00
54465;BME280;40374;49.480;20.016;2022-12-18T00:50:07;96132.66;;;-5.22;100.00
54465;BME280;40374;49.480;20.016;2022-12-18T00:52:35;96156.53;;;-5.25;100.00
54465;BME280;40374;49.480;20.016;2022-12-18T00:55:03;96163.75;;;-5.27;100.00
54465;BME280;40374;49.480;20.016;2022-12-18T00:57:32;96163.06;;;-5.30;100.00
54465;BME280;40374;49.480;20.016;2022-12-18T01:00:00;96168.91;;;-5.36;100.00
54465;BME280;40374;49.480;20.016;2022-12-18T01:02:27;96153.66;;;-5.58;100.00
54465;BME280;40374;49.480;20.016;2022-12-18T01:04:55;96173.41;;;-5.46;100.00
54465;BME280;40374;49.480;20.016;2022-12-18T01:07:22;96177.16;;;-5.48;100.00
54465;BME280;40374;49.480;20.016;2022-12-18T01:09:50;96173.72;;;-5.49;100.00
54465;BME280;40374;49.480;20.016;2022-12-18T01:12:17;96167.66;;;-5.49;100.00
54465;BME280;40374;49.480;20.016;2022-12-18T01:14:45;96179.03;;;-5.41;100.00
54465;BME280;40374;49.480;20.016;2022-12-18T01:17:14;96180.25;;;-5.35;100.00
54465;BME280;40374;49.480;20.016;2022-12-18T01:19:41;96178.06;;;-5.40;100.00
54465;BME280;40374;49.480;20.016;2022-12-18T01:22:09;96184.28;;;-5.41;100.00
54465;BME280;40374;49.480;20.016;2022-12-18T01:24:37;96175.38;;;-5.48;100.00
54465;BME280;40374;49.480;20.016;2022-12-18T01:27:04;96176.66;;;-5.52;100.00
54465;BME280;40374;49.480;20.016;2022-12-18T01:29:33;96176.13;;;-5.56;100.00
54465;BME280;40374;49.480;20.016;2022-12-18T01:32:00;96175.31;;;-5.56;100.00
54465;BME280;40374;49.480;20.016;2022-12-18T01:34:29;96190.56;;;-5.52;100.00
54465;BME280;40374;49.480;20.016;2022-12-18T01:36:56;96183.66;;;-5.53;100.00
54465;BME280;40374;49.480;20.016;2022-12-18T01:39:24;96178.00;;;-5.66;100.00
54465;BME280;40374;49.480;20.016;2022-12-18T01:41:51;96202.03;;;-5.53;100.00
54465;BME280;40374;49.480;20.016;2022-12-18T01:47:46;96198.59;;;-5.35;100.00
54465;BME280;40374;49.480;20.016;2022-12-18T01:50:28;96211.91;;;-5.46;100.00
54465;BME280;40374;49.480;20.016;2022-12-18T01:53:00;96213.63;;;-5.55;100.00
54465;BME280;40374;49.480;20.016;2022-12-18T01:55:32;96198.50;;;-5.61;100.00
54465;BME280;40374;49.480;20.016;2022-12-18T01:58:02;96208.69;;;-5.58;100.00
54465;BME280;40374;49.480;20.016;2022-12-18T02:00:30;96208.44;;;-5.65;100.00
54465;BME280;40374;49.480;20.016;2022-12-18T02:02:58;96214.00;;;-5.68;100.00
54465;BME280;40374;49.480;20.016;2022-12-18T02:06:01;96220.00;;;-5.40;100.00
54465;BME280;40374;49.480;20.016;2022-12-18T02:13:46;96234.19;;;-5.78;100.00
54465;BME280;40374;49.480;20.016;2022-12-18T02:16:27;96227.88;;;-5.58;100.00
54465;BME280;40374;49.480;20.016;2022-12-18T02:19:12;96238.25;;;-5.66;100.00
54465;BME280;40374;49.480;20.016;2022-12-18T02:25:00;96239.47;;;-5.60;100.00
54465;BME280;40374;49.480;20.016;2022-12-18T02:27:33;96241.59;;;-5.74;100.00
54465;BME280;40374;49.480;20.016;2022-12-18T02:30:03;96255.00;;;-5.77;100.00
54465;BME280;40374;49.480;20.016;2022-12-18T02:32:38;96256.06;;;-5.69;100.00
54465;BME280;40374;49.480;20.016;2022-12-18T02:35:12;96260.63;;;-5.72;100.00
54465;BME280;40374;49.480;20.016;2022-12-18T02:37:43;96261.66;;;-5.82;100.00
54465;BME280;40374;49.480;20.016;2022-12-18T02:40:14;96265.00;;;-5.90;100.00
54465;BME280;40374;49.480;20.016;2022-12-18T02:42:42;96278.66;;;-6.14;100.00
54465;BME280;40374;49.480;20.016;2022-12-18T02:45:12;96272.59;;;-6.15;100.00
54465;BME280;40374;49.480;20.016;2022-12-18T02:47:43;96263.19;;;-6.07;100.00
54465;BME280;40374;49.480;20.016;2022-12-18T02:50:49;96271.00;;;-5.98;100.00
54465;BME280;40374;49.480;20.016;2022-12-18T02:53:28;96267.72;;;-6.09;100.00
54465;BME280;40374;49.480;20.016;2022-12-18T02:56:13;96269.66;;;-6.02;100.00
54465;BME280;40374;49.480;20.016;2022-12-18T02:59:04;96270.19;;;-6.36;100.00
54465;BME280;40374;49.480;20.016;2022-12-18T03:02:23;96281.56;;;-5.89;100.00
54465;BME280;40374;49.480;20.016;2022-12-18T03:05:03;96279.75;;;-5.89;100.00
54465;BME280;40374;49.480;20.016;2022-12-18T03:07:38;96286.59;;;-5.96;100.00
54465;BME280;40374;49.480;20.016;2022-12-18T03:10:14;96267.63;;;-6.18;100.00
54465;BME280;40374;49.480;20.016;2022-12-18T03:12:59;96299.28;;;-6.01;100.00
54465;BME280;40374;49.480;20.016;2022-12-18T03:15:43;96295.16;;;-6.04;100.00
54465;BME280;40374;49.480;20.016;2022-12-18T03:18:18;96300.38;;;-6.04;100.00
54465;BME280;40374;49.480;20.016;2022-12-18T03:20:49;96303.72;;;-6.12;100.00
54465;BME280;40374;49.480;20.016;2022-12-18T03:23:27;96298.47;;;-6.12;100.00
54465;BME280;40374;49.480;20.016;2022-12-18T03:26:00;96298.38;;;-6.20;100.00
54465;BME280;40374;49.480;20.016;2022-12-18T03:28:39;96313.38;;;-6.12;100.00
54465;BME280;40374;49.480;20.016;2022-12-18T03:31:11;96310.75;;;-6.12;100.00
54465;BME280;40374;49.480;20.016;2022-12-18T03:36:23;96308.16;;;-6.22;100.00
54465;BME280;40374;49.480;20.016;2022-12-18T03:38:51;96317.81;;;-6.32;100.00
54465;BME280;40374;49.480;20.016;2022-12-18T03:49:47;96326.47;;;-6.12;100.00
54465;BME280;40374;49.480;20.016;2022-12-18T03:52:34;96329.22;;;-6.14;100.00
54465;BME280;40374;49.480;20.016;2022-12-18T03:55:05;96311.38;;;-6.38;100.00
54465;BME280;40374;49.480;20.016;2022-12-18T03:57:35;96328.03;;;-6.29;100.00
54465;BME280;40374;49.480;20.016;2022-12-18T04:00:11;96334.06;;;-6.19;100.00
54465;BME280;40374;49.480;20.016;2022-12-18T04:02:55;96335.59;;;-6.26;100.00
54465;BME280;40374;49.480;20.016;2022-12-18T04:05:33;96340.13;;;-6.28;100.00
54465;BME280;40374;49.480;20.016;2022-12-18T04:08:02;96339.06;;;-6.35;100.00
54465;BME280;40374;49.480;20.016;2022-12-18T04:10:37;96342.06;;;-6.20;100.00
54465;BME280;40374;49.480;20.016;2022-12-18T04:13:04;96343.47;;;-6.45;100.00
54465;BME280;40374;49.480;20.016;2022-12-18T04:15:34;96331.88;;;-6.33;100.00
54465;BME280;40374;49.480;20.016;2022-12-18T04:18:04;96357.38;;;-6.45;100.00
54465;BME280;40374;49.480;20.016;2022-12-18T04:20:38;96343.47;;;-6.55;100.00
54465;BME280;40374;49.480;20.016;2022-12-18T04:23:07;96362.63;;;-6.45;100.00
54465;BME280;40374;49.480;20.016;2022-12-18T04:25:36;96360.16;;;-6.56;100.00
54465;BME280;40374;49.480;20.016;2022-12-18T04:28:07;96373.25;;;-6.56;100.00
54465;BME280;40374;49.480;20.016;2022-12-18T04:30:37;96365.13;;;-6.63;100.00
54465;BME280;40374;49.480;20.016;2022-12-18T04:33:12;96379.00;;;-6.33;100.00
54465;BME280;40374;49.480;20.016;2022-12-18T04:35:40;96371.19;;;-6.53;100.00
54465;BME280;40374;49.480;20.016;2022-12-18T04:38:09;96376.41;;;-6.53;100.00
54465;BME280;40374;49.480;20.016;2022-12-18T04:40:37;96374.75;;;-6.54;100.00
54465;BME280;40374;49.480;20.016;2022-12-18T04:43:13;96378.47;;;-6.56;100.00
54465;BME280;40374;49.480;20.016;2022-12-18T04:45:41;96375.72;;;-6.64;100.00
54465;BME280;40374;49.480;20.016;2022-12-18T04:48:08;96382.59;;;-6.54;100.00
54465;BME280;40374;49.480;20.016;2022-12-18T04:50:36;96376.28;;;-6.61;100.00
54465;BME280;40374;49.480;20.016;2022-12-18T04:53:04;96372.69;;;-6.60;100.00
54465;BME280;40374;49.480;20.016;2022-12-18T04:55:31;96399.56;;;-6.48;100.00
54465;BME280;40374;49.480;20.016;2022-12-18T04:57:58;96395.94;;;-6.47;100.00
54465;BME280;40374;49.480;20.016;2022-12-18T05:00:26;96384.41;;;-6.54;100.00
54465;BME280;40374;49.480;20.016;2022-12-18T05:02:54;96386.19;;;-6.64;100.00
54465;BME280;40374;49.480;20.016;2022-12-18T05:05:21;96403.00;;;-6.57;100.00
54465;BME280;40374;49.480;20.016;2022-12-18T05:07:49;96387.28;;;-6.67;100.00
54465;BME280;40374;49.480;20.016;2022-12-18T05:10:16;96405.06;;;-6.61;100.00
54465;BME280;40374;49.480;20.016;2022-12-18T05:12:45;96405.47;;;-6.65;100.00
54465;BME280;40374;49.480;20.016;2022-12-18T05:15:28;96414.28;;;-6.57;100.00
54465;BME280;40374;49.480;20.016;2022-12-18T05:17:58;96413.03;;;-6.62;100.00
54465;BME280;40374;49.480;20.016;2022-12-18T05:20:26;96418.94;;;-6.70;100.00
54465;BME280;40374;49.480;20.016;2022-12-18T05:22:55;96420.47;;;-6.77;100.00
54465;BME280;40374;49.480;20.016;2022-12-18T05:25:22;96422.53;;;-6.71;100.00
54465;BME280;40374;49.480;20.016;2022-12-18T05:27:50;96426.94;;;-6.62;100.00
54465;BME280;40374;49.480;20.016;2022-12-18T05:30:17;96424.88;;;-6.68;100.00
54465;BME280;40374;49.480;20.016;2022-12-18T05:32:47;96418.69;;;-6.67;100.00
54465;BME280;40374;49.480;20.016;2022-12-18T05:35:14;96419.25;;;-6.73;100.00
54465;BME280;40374;49.480;20.016;2022-12-18T05:37:42;96418.41;;;-6.74;100.00
54465;BME280;40374;49.480;20.016;2022-12-18T05:40:10;96418.81;;;-6.68;100.00
54465;BME280;40374;49.480;20.016;2022-12-18T05:42:38;96432.75;;;-6.58;100.00
54465;BME280;40374;49.480;20.016;2022-12-18T05:45:06;96431.91;;;-6.68;100.00
54465;BME280;40374;49.480;20.016;2022-12-18T05:47:33;96440.72;;;-6.79;100.00
54465;BME280;40374;49.480;20.016;2022-12-18T05:50:01;96448.72;;;-6.71;100.00
54465;BME280;40374;49.480;20.016;2022-12-18T05:52:28;96443.88;;;-6.76;100.00
54465;BME280;40374;49.480;20.016;2022-12-18T05:54:57;96452.56;;;-6.75;100.00
54465;BME280;40374;49.480;20.016;2022-12-18T05:57:26;96449.78;;;-6.83;100.00
54465;BME280;40374;49.480;20.016;2022-12-18T05:59:53;96421.16;;;-6.95;100.00
54465;BME280;40374;49.480;20.016;2022-12-18T06:02:21;96461.50;;;-6.78;100.00
54465;BME280;40374;49.480;20.016;2022-12-18T06:04:48;96452.53;;;-6.85;100.00
54465;BME280;40374;49.480;20.016;2022-12-18T06:07:16;96469.34;;;-6.78;100.00
54465;BME280;40374;49.480;20.016;2022-12-18T06:09:43;96467.69;;;-6.79;100.00
54465;BME280;40374;49.480;20.016;2022-12-18T06:12:10;96473.78;;;-6.78;100.00
54465;BME280;40374;49.480;20.016;2022-12-18T06:14:38;96471.69;;;-6.84;100.00
54465;BME280;40374;49.480;20.016;2022-12-18T06:17:06;96477.19;;;-6.78;100.00
54465;BME280;40374;49.480;20.016;2022-12-18T06:19:33;96476.38;;;-6.78;100.00
54465;BME280;40374;49.480;20.016;2022-12-18T06:22:01;96488.78;;;-6.70;100.00
54465;BME280;40374;49.480;20.016;2022-12-18T06:24:28;96478.03;;;-6.77;100.00
54465;BME280;40374;49.480;20.016;2022-12-18T06:26:56;96487.25;;;-6.73;100.00
54465;BME280;40374;49.480;20.016;2022-12-18T06:29:24;96482.84;;;-6.82;100.00
54465;BME280;40374;49.480;20.016;2022-12-18T06:31:51;96501.84;;;-6.80;100.00
54465;BME280;40374;49.480;20.016;2022-12-18T06:34:19;96494.94;;;-6.81;100.00
54465;BME280;40374;49.480;20.016;2022-12-18T06:36:46;96481.72;;;-6.89;100.00
54465;BME280;40374;49.480;20.016;2022-12-18T06:39:13;96510.94;;;-6.75;100.00
54465;BME280;40374;49.480;20.016;2022-12-18T06:41:41;96509.81;;;-6.82;100.00
54465;BME280;40374;49.480;20.016;2022-12-18T06:44:08;96505.94;;;-6.87;100.00
54465;BME280;40374;49.480;20.016;2022-12-18T06:46:37;96512.81;;;-6.96;100.00
54465;BME280;40374;49.480;20.016;2022-12-18T06:49:04;96520.25;;;-6.91;100.00
54465;BME280;40374;49.480;20.016;2022-12-18T06:51:32;96521.91;;;-6.90;100.00
54465;BME280;40374;49.480;20.016;2022-12-18T06:53:59;96528.53;;;-6.86;100.00
54465;BME280;40374;49.480;20.016;2022-12-18T06:56:27;96509.25;;;-6.85;100.00
54465;BME280;40374;49.480;20.016;2022-12-18T06:58:55;96515.72;;;-6.89;100.00
54465;BME280;40374;49.480;20.016;2022-12-18T07:01:22;96530.41;;;-6.98;100.00
54465;BME280;40374;49.480;20.016;2022-12-18T07:03:54;96536.38;;;-6.86;100.00
54465;BME280;40374;49.480;20.016;2022-12-18T07:06:24;96541.69;;;-6.98;100.00
54465;BME280;40374;49.480;20.016;2022-12-18T07:08:53;96540.47;;;-7.03;100.00
54465;BME280;40374;49.480;20.016;2022-12-18T07:11:21;96531.16;;;-7.17;100.00
54465;BME280;40374;49.480;20.016;2022-12-18T07:13:49;96553.53;;;-7.03;100.00
54465;BME280;40374;49.480;20.016;2022-12-18T07:16:18;96548.88;;;-6.90;100.00
54465;BME280;40374;49.480;20.016;2022-12-18T07:18:52;96558.31;;;-7.08;100.00
54465;BME280;40374;49.480;20.016;2022-12-18T07:21:20;96568.72;;;-7.18;100.00
54465;BME280;40374;49.480;20.016;2022-12-18T07:23:47;96572.22;;;-7.29;100.00
54465;BME280;40374;49.480;20.016;2022-12-18T07:26:17;96554.00;;;-7.19;100.00
54465;BME280;40374;49.480;20.016;2022-12-18T07:28:45;96581.97;;;-7.10;100.00
54465;BME280;40374;49.480;20.016;2022-12-18T07:31:19;96589.34;;;-6.94;100.00
54465;BME280;40374;49.480;20.016;2022-12-18T07:33:48;96585.22;;;-6.97;100.00
54465;BME280;40374;49.480;20.016;2022-12-18T07:36:16;96595.78;;;-6.98;100.00
54465;BME280;40374;49.480;20.016;2022-12-18T07:38:46;62409.59;;;-145.97;100.00
54465;BME280;40374;49.480;20.016;2022-12-18T07:41:14;62409.59;;;-145.97;100.00
54465;BME280;40374;49.480;20.016;2022-12-18T07:43:42;62409.59;;;-145.97;100.00
54465;BME280;40374;49.480;20.016;2022-12-18T07:46:11;62409.59;;;-145.97;100.00
54465;BME280;40374;49.480;20.016;2022-12-18T07:48:41;62409.59;;;-145.97;100.00
54465;BME280;40374;49.480;20.016;2022-12-18T07:51:16;62409.59;;;-145.97;100.00
54465;BME280;40374;49.480;20.016;2022-12-18T07:53:44;62409.59;;;-145.97;100.00
54465;BME280;40374;49.480;20.016;2022-12-18T07:56:14;62409.59;;;-145.97;100.00
54465;BME280;40374;49.480;20.016;2022-12-18T07:58:58;62409.59;;;-145.97;100.00
54465;BME280;40374;49.480;20.016;2022-12-18T08:01:29;62409.59;;;-145.97;100.00
54465;BME280;40374;49.480;20.016;2022-12-18T08:03:57;62409.59;;;-145.97;100.00
54465;BME280;40374;49.480;20.016;2022-12-18T08:06:25;62409.59;;;-145.97;100.00
54465;BME280;40374;49.480;20.016;2022-12-18T08:08:54;62409.59;;;-145.97;100.00
54465;BME280;40374;49.480;20.016;2022-12-18T08:11:23;62409.59;;;-145.97;100.00
54465;BME280;40374;49.480;20.016;2022-12-18T08:13:52;62409.59;;;-145.97;100.00
54465;BME280;40374;49.480;20.016;2022-12-18T08:16:21;62409.59;;;-145.97;100.00
54465;BME280;40374;49.480;20.016;2022-12-18T08:18:49;62409.59;;;-145.97;100.00
54465;BME280;40374;49.480;20.016;2022-12-18T08:21:19;62409.59;;;-145.97;100.00
54465;BME280;40374;49.480;20.016;2022-12-18T08:23:50;62409.59;;;-145.97;100.00
54465;BME280;40374;49.480;20.016;2022-12-18T08:26:19;62409.59;;;-145.97;100.00
54465;BME280;40374;49.480;20.016;2022-12-18T08:28:49;62409.59;;;-145.97;100.00
54465;BME280;40374;49.480;20.016;2022-12-18T08:31:18;62409.59;;;-145.97;100.00
54465;BME280;40374;49.480;20.016;2022-12-18T08:33:49;62409.59;;;-145.97;100.00
54465;BME280;40374;49.480;20.016;2022-12-18T08:36:18;62409.59;;;-145.97;100.00
54465;BME280;40374;49.480;20.016;2022-12-18T08:38:46;62409.59;;;-145.97;100.00
54465;BME280;40374;49.480;20.016;2022-12-18T08:41:16;62409.59;;;-145.97;100.00
54465;BME280;40374;49.480;20.016;2022-12-18T08:43:44;62409.59;;;-145.97;100.00
54465;BME280;40374;49.480;20.016;2022-12-18T08:46:38;62409.59;;;-145.97;100.00
54465;BME280;40374;49.480;20.016;2022-12-18T08:49:07;62409.59;;;-145.97;100.00
54465;BME280;40374;49.480;20.016;2022-12-18T08:51:35;62409.59;;;-145.97;100.00
54465;BME280;40374;49.480;20.016;2022-12-18T08:54:04;62409.59;;;-145.97;100.00
54465;BME280;40374;49.480;20.016;2022-12-18T08:56:33;62409.59;;;-145.97;100.00
54465;BME280;40374;49.480;20.016;2022-12-18T08:59:01;62409.59;;;-145.97;100.00
54465;BME280;40374;49.480;20.016;2022-12-18T09:01:29;62409.59;;;-145.97;100.00
54465;BME280;40374;49.480;20.016;2022-12-18T09:03:57;62409.59;;;-145.97;100.00
54465;BME280;40374;49.480;20.016;2022-12-18T09:06:25;62409.59;;;-145.97;100.00
54465;BME280;40374;49.480;20.016;2022-12-18T09:08:53;62409.59;;;-145.97;100.00
54465;BME280;40374;49.480;20.016;2022-12-18T09:11:25;62409.59;;;-145.97;100.00
54465;BME280;40374;49.480;20.016;2022-12-18T09:13:54;62409.59;;;-145.97;100.00
54465;BME280;40374;49.480;20.016;2022-12-18T09:16:22;62409.59;;;-145.97;100.00
54465;BME280;40374;49.480;20.016;2022-12-18T09:18:58;62409.59;;;-145.97;100.00
54465;BME280;40374;49.480;20.016;2022-12-18T09:21:29;62409.59;;;-145.97;100.00
54465;BME280;40374;49.480;20.016;2022-12-18T09:23:58;62409.59;;;-145.97;100.00
54465;BME280;40374;49.480;20.016;2022-12-18T09:26:26;62409.59;;;-145.97;100.00
54465;BME280;40374;49.480;20.016;2022-12-18T09:28:54;62409.59;;;-145.97;100.00
54465;BME280;40374;49.480;20.016;2022-12-18T09:31:23;62409.59;;;-145.97;100.00
54465;BME280;40374;49.480;20.016;2022-12-18T09:33:51;62409.59;;;-145.97;100.00
54465;BME280;40374;49.480;20.016;2022-12-18T09:36:19;62409.59;;;-145.97;100.00
54465;BME280;40374;49.480;20.016;2022-12-18T09:38:47;62409.59;;;-145.97;100.00
54465;BME280;40374;49.480;20.016;2022-12-18T09:44:43;62409.59;;;-145.97;100.00
54465;BME280;40374;49.480;20.016;2022-12-18T09:47:22;62409.59;;;-145.97;100.00
54465;BME280;40374;49.480;20.016;2022-12-18T09:49:53;62409.59;;;-145.97;100.00
54465;BME280;40374;49.480;20.016;2022-12-18T09:52:45;62409.59;;;-145.97;100.00
54465;BME280;40374;49.480;20.016;2022-12-18T09:55:36;62409.59;;;-145.97;100.00
54465;BME280;40374;49.480;20.016;2022-12-18T09:58:28;62409.59;;;-145.97;100.00
54465;BME280;40374;49.480;20.016;2022-12-18T10:00:58;62409.59;;;-145.97;100.00
54465;BME280;40374;49.480;20.016;2022-12-18T10:03:26;62409.59;;;-145.97;100.00
54465;BME280;40374;49.480;20.016;2022-12-18T10:06:12;62409.59;;;-145.97;100.00
54465;BME280;40374;49.480;20.016;2022-12-18T10:16:49;62409.59;;;-145.97;100.00
54465;BME280;40374;49.480;20.016;2022-12-18T10:19:32;62409.59;;;-145.97;100.00
54465;BME280;40374;49.480;20.016;2022-12-18T10:22:07;62409.59;;;-145.97;100.00
54465;BME280;40374;49.480;20.016;2022-12-18T10:24:53;62409.59;;;-145.97;100.00
54465;BME280;40374;49.480;20.016;2022-12-18T10:27:26;62409.59;;;-145.97;100.00
54465;BME280;40374;49.480;20.016;2022-12-18T10:29:54;62409.59;;;-145.97;100.00
54465;BME280;40374;49.480;20.016;2022-12-18T10:32:25;62409.59;;;-145.97;100.00
54465;BME280;40374;49.480;20.016;2022-12-18T10:34:56;62409.59;;;-145.97;100.00
54465;BME280;40374;49.480;20.016;2022-12-18T10:37:29;62409.59;;;-145.97;100.00
54465;BME280;40374;49.480;20.016;2022-12-18T10:40:11;62409.59;;;-145.97;100.00
54465;BME280;40374;49.480;20.016;2022-12-18T10:42:45;62409.59;;;-145.97;100.00
54465;BME280;40374;49.480;20.016;2022-12-18T10:45:15;62409.59;;;-145.97;100.00
54465;BME280;40374;49.480;20.016;2022-12-18T10:47:49;62409.59;;;-145.97;100.00
54465;BME280;40374;49.480;20.016;2022-12-18T10:50:30;62409.59;;;-145.97;100.00
54465;BME280;40374;49.480;20.016;2022-12-18T10:53:26;62409.59;;;-145.97;100.00
54465;BME280;40374;49.480;20.016;2022-12-18T10:56:00;62409.59;;;-145.97;100.00
54465;BME280;40374;49.480;20.016;2022-12-18T10:58:36;62409.59;;;-145.97;100.00
54465;BME280;40374;49.480;20.016;2022-12-18T11:01:15;62409.59;;;-145.97;100.00
54465;BME280;40374;49.480;20.016;2022-12-18T11:03:59;62409.59;;;-145.97;100.00
54465;BME280;40374;49.480;20.016;2022-12-18T11:06:32;62409.59;;;-145.97;100.00
54465;BME280;40374;49.480;20.016;2022-12-18T11:09:03;62409.59;;;-145.97;100.00
54465;BME280;40374;49.480;20.016;2022-12-18T11:11:40;62409.59;;;-145.97;100.00
54465;BME280;40374;49.480;20.016;2022-12-18T11:14:18;62409.59;;;-145.97;100.00
54465;BME280;40374;49.480;20.016;2022-12-18T11:16:50;62409.59;;;-145.97;100.00
54465;BME280;40374;49.480;20.016;2022-12-18T11:19:40;62409.59;;;-145.97;100.00
54465;BME280;40374;49.480;20.016;2022-12-18T11:22:29;62409.59;;;-145.97;100.00
54465;BME280;40374;49.480;20.016;2022-12-18T11:25:00;62409.59;;;-145.97;100.00
54465;BME280;40374;49.480;20.016;2022-12-18T11:33:42;62409.59;;;-145.97;100.00
54465;BME280;40374;49.480;20.016;2022-12-18T11:36:36;62409.59;;;-145.97;100.00
54465;BME280;40374;49.480;20.016;2022-12-18T11:39:15;62409.59;;;-145.97;100.00
54465;BME280;40374;49.480;20.016;2022-12-18T11:41:52;62409.59;;;-145.97;100.00
54465;BME280;40374;49.480;20.016;2022-12-18T11:47:28;62409.59;;;-145.97;100.00
54465;BME280;40374;49.480;20.016;2022-12-18T11:50:00;62409.59;;;-145.97;100.00
54465;BME280;40374;49.480;20.016;2022-12-18T11:52:36;62409.59;;;-145.97;100.00
54465;BME280;40374;49.480;20.016;2022-12-18T12:00:44;62409.59;;;-145.97;100.00
54465;BME280;40374;49.480;20.016;2022-12-18T12:17:37;62409.59;;;-145.97;100.00
54465;BME280;40374;49.480;20.016;2022-12-18T12:34:22;62409.59;;;-145.97;100.00
54465;BME280;40374;49.480;20.016;2022-12-18T12:39:40;62409.59;;;-145.97;100.00
54465;BME280;40374;49.480;20.016;2022-12-18T12:42:41;62409.59;;;-145.97;100.00
54465;BME280;40374;49.480;20.016;2022-12-18T12:45:44;62409.59;;;-145.97;100.00
54465;BME280;40374;49.480;20.016;2022-12-18T12:51:18;62409.59;;;-145.97;100.00
54465;BME280;40374;49.480;20.016;2022-12-18T12:53:48;62409.59;;;-145.97;100.00
54465;BME280;40374;49.480;20.016;2022-12-18T12:56:18;62409.59;;;-145.97;100.00
54465;BME280;40374;49.480;20.016;2022-12-18T12:59:35;62409.59;;;-145.97;100.00
54465;BME280;40374;49.480;20.016;2022-12-18T13:02:02;62409.59;;;-145.97;100.00
54465;BME280;40374;49.480;20.016;2022-12-18T13:08:34;62409.59;;;-145.97;100.00
54465;BME280;40374;49.480;20.016;2022-12-18T13:13:02;62409.59;;;-145.97;100.00
54465;BME280;40374;49.480;20.016;2022-12-18T13:15:38;62409.59;;;-145.97;100.00
54465;BME280;40374;49.480;20.016;2022-12-18T13:18:23;62409.59;;;-145.97;100.00
54465;BME280;40374;49.480;20.016;2022-12-18T13:28:56;62409.59;;;-145.97;100.00
54465;BME280;40374;49.480;20.016;2022-12-18T13:34:21;62409.59;;;-145.97;100.00
54465;BME280;40374;49.480;20.016;2022-12-18T13:36:57;62409.59;;;-145.97;100.00
54465;BME280;40374;49.480;20.016;2022-12-18T13:39:44;62409.59;;;-145.97;100.00
54465;BME280;40374;49.480;20.016;2022-12-18T13:45:00;62409.59;;;-145.97;100.00
54465;BME280;40374;49.480;20.016;2022-12-18T13:47:32;62409.59;;;-145.97;100.00
54465;BME280;40374;49.480;20.016;2022-12-18T13:50:09;62409.59;;;-145.97;100.00
54465;BME280;40374;49.480;20.016;2022-12-18T13:52:39;62409.59;;;-145.97;100.00
54465;BME280;40374;49.480;20.016;2022-12-18T13:55:15;62409.59;;;-145.97;100.00
54465;BME280;40374;49.480;20.016;2022-12-18T13:57:45;62409.59;;;-145.97;100.00
54465;BME280;40374;49.480;20.016;2022-12-18T14:02:46;62409.59;;;-145.97;100.00
54465;BME280;40374;49.480;20.016;2022-12-18T14:05:32;62409.59;;;-145.97;100.00
54465;BME280;40374;49.480;20.016;2022-12-18T14:08:05;62409.59;;;-145.97;100.00
54465;BME280;40374;49.480;20.016;2022-12-18T14:10:35;62409.59;;;-145.97;100.00
54465;BME280;40374;49.480;20.016;2022-12-18T14:13:28;62409.59;;;-145.97;100.00
54465;BME280;40374;49.480;20.016;2022-12-18T14:15:57;62409.59;;;-145.97;100.00
54465;BME280;40374;49.480;20.016;2022-12-18T14:21:25;62409.59;;;-145.97;100.00
54465;BME280;40374;49.480;20.016;2022-12-18T14:24:20;62409.59;;;-145.97;100.00
54465;BME280;40374;49.480;20.016;2022-12-18T14:26:49;62409.59;;;-145.97;100.00
54465;BME280;40374;49.480;20.016;2022-12-18T14:29:27;62409.59;;;-145.97;100.00
54465;BME280;40374;49.480;20.016;2022-12-18T14:32:17;62409.59;;;-145.97;100.00
54465;BME280;40374;49.480;20.016;2022-12-18T14:34:53;62409.59;;;-145.97;100.00
54465;BME280;40374;49.480;20.016;2022-12-18T14:37:26;62409.59;;;-145.97;100.00
54465;BME280;40374;49.480;20.016;2022-12-18T14:39:59;62409.59;;;-145.97;100.00
54465;BME280;40374;49.480;20.016;2022-12-18T14:42:35;62409.59;;;-145.97;100.00
54465;BME280;40374;49.480;20.016;2022-12-18T14:45:39;62409.59;;;-145.97;100.00